Terminal Aerodrome Forecast
Issued by NWS

Home | Current Version | Previous Version | Text Only | Print | Product List | Glossary On
Versions: 1 2 3 4 5 6 7 8 9 10 11 12 13 14 15 16 17 18 19 20 21 22 23 24 25 26 27 28 29 30 31 32 33 34
000
FTUS43 KDVN 302340
TAFBRL
TAF
KBRL 302340Z 0100/0124 VRB04KT 6SM HZ BKN250
     FM010900 VRB03KT 6SM BR VCSH SCT070 BKN150 BKN250
     FM011400 12006KT 6SM BR VCSH SCT030 BKN070 BKN150
     FM012200 09007KT 6SM BR OVC100=

USA.gov is the U.S. government's official web portal to all federal, state and local government web resources and services.